Time;durP1;ratioP1;P1;durP2;ratioP2;P2;SDS_P1;SDS_P2;PMS_P1;PMS_P2;Temp;Humidity;BMP_temperature;BMP_pressure;BME280_temperature;BME280_humidity;BME280_pressure;Samples;Min_cycle;Max_cycle;Signal;HPM_P1;HPM_P2
2021/09/23 00:01:04;;;;;;;10.63;5.07;;;;;;;14.31;81.16;100715.63;4937467;29;20048;-82
2021/09/23 00:03:45;;;;;;;5.05;4.55;;;;;;;14.24;81.75;100709.06;4937374;29;20048;-82
2021/09/23 00:06:12;;;;;;;6.50;5.45;;;;;;;14.29;81.82;100713.09;4936517;29;20067;-81
2021/09/23 00:08:39;;;;;;;7.07;6.32;;;;;;;14.33;81.44;100705.91;4937620;29;20062;-81
2021/09/23 00:11:07;;;;;;;8.30;6.80;;;;;;;14.27;81.92;100714.09;4937563;29;20483;-81
2021/09/23 00:13:34;;;;;;;8.00;6.68;;;;;;;14.27;82.18;100701.00;4938005;29;20047;-81
2021/09/23 00:16:02;;;;;;;7.95;7.00;;;;;;;14.28;81.73;100710.56;4937335;28;20121;-82
2021/09/23 00:18:31;;;;;;;8.45;7.22;;;;;;;14.19;82.14;100717.19;4936854;29;20052;-81
2021/09/23 00:20:58;;;;;;;7.75;6.95;;;;;;;14.21;82.21;100714.47;4936181;29;20036;-81
2021/09/23 00:23:25;;;;;;;9.20;6.00;;;;;;;14.13;82.03;100715.75;4937767;29;20542;-81
2021/09/23 00:25:52;;;;;;;6.13;5.53;;;;;;;14.20;81.88;100723.28;4937388;29;20039;-82
2021/09/23 00:28:22;;;;;;;8.45;4.93;;;;;;;14.24;81.08;100715.16;4938041;29;20054;-81
2021/09/23 00:30:48;;;;;;;4.80;4.30;;;;;;;14.13;81.80;100718.38;4937056;29;20044;-82
2021/09/23 00:33:16;;;;;;;6.40;5.13;;;;;;;14.12;81.60;100721.09;4936280;29;20119;-81
2021/09/23 00:35:43;;;;;;;9.02;4.38;;;;;;;13.96;82.74;100715.88;4937112;29;20135;-81
2021/09/23 00:38:10;;;;;;;4.80;4.30;;;;;;;13.94;82.89;100714.28;4936864;29;20499;-80
2021/09/23 00:40:37;;;;;;;6.90;4.30;;;;;;;13.95;82.84;100716.78;4935735;29;20044;-80
2021/09/23 00:43:05;;;;;;;7.45;4.38;;;;;;;13.88;83.34;100720.69;4936588;29;20051;-80
2021/09/23 00:45:33;;;;;;;4.57;4.03;;;;;;;13.97;82.78;100722.81;4937208;29;20039;-80
2021/09/23 00:48:00;;;;;;;5.20;4.30;;;;;;;13.89;83.30;100719.75;4934206;29;20048;-80
2021/09/23 00:50:27;;;;;;;4.13;3.60;;;;;;;13.81;83.80;100716.75;4933618;29;20495;-80
2021/09/23 00:53:02;;;;;;;5.50;3.53;;;;;;;13.88;83.47;100718.91;4933567;29;20050;-80
2021/09/23 00:55:29;;;;;;;4.15;3.75;;;;;;;13.86;83.60;100709.47;4934819;29;20039;-80
2021/09/23 00:57:56;;;;;;;7.60;3.60;;;;;;;13.91;83.60;100712.69;4936464;29;20047;-79
2021/09/23 01:00:25;;;;;;;6.15;3.72;;;;;;;13.88;83.63;100713.69;4935217;29;20047;-79
2021/09/23 01:03:12;;;;;;;4.25;3.85;;;;;;;13.93;83.53;100712.59;4936293;29;20427;-79
2021/09/23 01:05:40;;;;;;;6.03;3.75;;;;;;;13.79;84.22;100710.72;4935209;29;20051;-79
2021/09/23 01:08:09;;;;;;;4.18;3.47;;;;;;;13.73;84.55;100708.44;4936403;29;20043;-79
2021/09/23 01:10:35;;;;;;;4.55;3.63;;;;;;;13.68;85.17;100713.94;4934749;29;20040;-79
2021/09/23 01:13:04;;;;;;;7.30;3.38;;;;;;;13.67;85.14;100709.63;4935033;29;20126;-79
2021/09/23 01:15:57;;;;;;;3.90;3.50;;;;;;;13.54;85.77;100701.63;4935833;29;20040;-79
2021/09/23 01:18:42;;;;;;;6.55;3.67;;;;;;;13.52;86.14;100695.59;4934939;28;20303;-79
2021/09/23 01:21:11;;;;;;;4.00;3.60;;;;;;;13.51;85.95;100699.16;4934436;29;20051;-79
2021/09/23 01:23:44;;;;;;;4.40;4.00;;;;;;;13.42;86.62;100701.44;4934922;29;20043;-80
2021/09/23 01:26:18;;;;;;;4.03;3.63;;;;;;;13.38;86.66;100692.91;4934401;29;20469;-80
2021/09/23 01:28:46;;;;;;;;;;;;;;;13.42;86.35;100702.28;4935352;29;20100;-79
2021/09/23 01:31:14;;;;;;;4.22;3.83;;;;;;;13.34;87.00;100701.88;4934387;29;19923;-80
2021/09/23 01:33:46;;;;;;;5.75;3.50;;;;;;;13.30;86.85;100695.09;4934734;29;20044;-80
2021/09/23 01:36:14;;;;;;;4.35;3.95;;;;;;;13.32;86.75;100693.25;4933981;29;20150;-79
2021/09/23 01:38:41;;;;;;;4.90;3.63;;;;;;;13.30;86.96;100695.94;4934532;29;20051;-80
2021/09/23 01:41:10;;;;;;;5.10;4.30;;;;;;;13.24;87.13;100693.66;4934613;29;20557;-79
2021/09/23 01:43:37;;;;;;;5.35;4.10;;;;;;;13.21;87.42;100690.31;4934193;29;20403;-79
2021/09/23 01:46:04;;;;;;;4.47;4.07;;;;;;;13.22;87.47;100698.13;4934346;29;20044;-80
2021/09/23 01:48:35;;;;;;;5.25;4.72;;;;;;;13.18;87.58;100698.34;4919368;29;20126;-80
2021/09/23 01:51:03;;;;;;;4.50;4.10;;;;;;;13.16;87.88;100694.97;4934410;29;20063;-79
2021/09/23 01:53:30;;;;;;;4.07;3.67;;;;;;;13.05;88.52;100698.16;4934133;29;20051;-80
2021/09/23 01:55:57;;;;;;;7.55;4.45;;;;;;;13.11;87.97;100688.22;4934384;29;20059;-80
2021/09/23 01:58:27;;;;;;;5.43;4.40;;;;;;;13.14;87.73;100683.72;4933851;29;20043;-79
2021/09/23 02:00:54;;;;;;;5.57;3.70;;;;;;;13.10;88.20;100691.75;4934252;29;20058;-79
2021/09/23 02:03:21;;;;;;;6.95;4.35;;;;;;;12.99;89.56;100686.22;4933930;29;20040;-79
2021/09/23 02:06:05;;;;;;;7.22;4.93;;;;;;;12.97;90.48;100684.63;4934312;29;20461;-79
2021/09/23 02:08:33;;;;;;;8.73;6.78;;;;;;;12.99;90.64;100680.16;4934082;29;20047;-79
2021/09/23 02:11:00;;;;;;;8.90;6.35;;;;;;;12.95;91.04;100689.94;4933785;29;20071;-80
2021/09/23 02:13:35;;;;;;;10.82;8.18;;;;;;;12.85;92.35;100684.34;4934341;29;20055;-81
2021/09/23 02:16:03;;;;;;;10.25;8.82;;;;;;;13.00;91.96;100690.56;4933819;29;20047;-80
2021/09/23 02:18:30;;;;;;;11.52;8.70;;;;;;;12.94;92.07;100688.22;4934346;29;20055;-81
2021/09/23 02:21:03;;;;;;;7.47;6.45;;;;;;;12.93;91.97;100691.78;4934021;29;20047;-80
2021/09/23 02:23:30;;;;;;;13.52;9.13;;;;;;;12.87;93.18;100691.28;4934112;29;20044;-80
2021/09/23 02:25:57;;;;;;;12.88;11.23;;;;;;;12.81;94.49;100681.97;4933943;29;20051;-82
2021/09/23 02:28:24;;;;;;;13.27;10.02;;;;;;;12.85;93.99;100684.34;4934152;29;20040;-82
2021/09/23 02:30:50;;;;;;;12.82;10.65;;;;;;;12.83;94.19;100682.72;4933674;29;20043;-81
2021/09/23 02:33:17;;;;;;;11.38;10.18;;;;;;;12.89;94.33;100676.31;4934062;29;20052;-81
2021/09/23 02:35:44;;;;;;;14.30;8.68;;;;;;;12.86;93.54;100682.56;4934309;29;20060;-81
2021/09/23 02:38:11;;;;;;;9.25;6.50;;;;;;;12.85;92.52;100684.34;4933941;29;20134;-81
2021/09/23 02:40:38;;;;;;;8.77;7.88;;;;;;;12.78;93.10;100676.88;4934177;29;20058;-81
2021/09/23 02:43:05;;;;;;;8.82;5.82;;;;;;;12.71;92.64;100683.38;4933594;29;20044;-81
2021/09/23 02:45:32;;;;;;;6.30;5.40;;;;;;;12.61;93.18;100680.38;4931449;29;20039;-81
2021/09/23 02:47:59;;;;;;;5.60;4.63;;;;;;;12.48;93.01;100689.78;4933749;29;20055;-81
2021/09/23 02:50:26;;;;;;;6.00;4.32;;;;;;;12.48;93.23;100680.19;4933528;29;20043;-82
2021/09/23 02:52:53;;;;;;;10.98;4.57;;;;;;;12.54;92.42;100682.47;4933339;29;20489;-80
2021/09/23 02:55:20;;;;;;;4.45;4.05;;;;;;;12.45;92.57;100682.94;4933508;29;20044;-80
2021/09/23 02:57:47;;;;;;;4.35;3.92;;;;;;;12.13;93.07;100686.31;4928528;29;20150;-80
2021/09/23 03:00:14;;;;;;;5.32;3.90;;;;;;;12.30;92.67;100688.94;4933745;28;20150;-81
2021/09/23 03:02:41;;;;;;;4.30;3.40;;;;;;;12.26;92.67;100690.88;4933651;29;20044;-81
2021/09/23 03:05:08;;;;;;;4.43;3.67;;;;;;;12.26;92.84;100690.03;4933151;29;20464;-81
2021/09/23 03:07:35;;;;;;;5.30;3.90;;;;;;;12.21;93.47;100689.41;4933424;29;20047;-81
2021/09/23 03:10:04;;;;;;;4.18;3.30;;;;;;;12.22;92.84;100699.78;4933220;29;20088;-80
2021/09/23 03:12:32;;;;;;;4.15;3.38;;;;;;;12.18;93.16;100690.41;4933277;29;20059;-80
2021/09/23 03:15:00;;;;;;;5.50;3.55;;;;;;;12.17;93.28;100696.56;4935508;29;20044;-80
2021/09/23 03:17:27;;;;;;;4.20;3.80;;;;;;;12.21;93.64;100684.19;4937021;29;20102;-80
2021/09/23 03:19:54;;;;;;;6.88;3.90;;;;;;;12.15;93.98;100687.94;4923301;29;20495;-80
2021/09/23 03:22:21;;;;;;;4.65;4.18;;;;;;;12.22;93.39;100685.88;4945108;29;20135;-80
2021/09/23 03:24:49;;;;;;;6.53;5.03;;;;;;;12.09;95.16;100684.78;4919252;29;20078;-80
2021/09/23 03:27:16;;;;;;;5.20;4.20;;;;;;;12.15;94.86;100687.94;4919193;29;20044;-80
2021/09/23 03:29:44;;;;;;;8.02;4.25;;;;;;;12.16;93.91;100694.03;4937894;29;20491;-80
2021/09/23 03:32:10;;;;;;;5.47;4.68;;;;;;;12.15;93.58;100687.09;4936409;29;20047;-80
2021/09/23 03:34:40;;;;;;;7.43;3.70;;;;;;;12.10;93.36;100689.94;4937758;29;20091;-80
2021/09/23 03:37:07;;;;;;;4.57;4.13;;;;;;;12.00;93.35;100689.53;4937345;29;20483;-81
2021/09/23 03:39:34;;;;;;;5.13;3.80;;;;;;;11.91;93.90;100697.81;4936822;29;20043;-80
2021/09/23 03:42:01;;;;;;;5.35;4.30;;;;;;;11.95;94.52;100694.13;4936289;29;20064;-80
2021/09/23 03:44:28;;;;;;;6.75;4.40;;;;;;;11.96;94.22;100688.00;4937652;29;20118;-80
2021/09/23 03:46:57;;;;;;;7.63;3.78;;;;;;;11.97;93.98;100694.91;4936105;29;20040;-81
2021/09/23 03:49:24;;;;;;;4.28;3.67;;;;;;;11.94;93.76;100686.38;4936409;29;20047;-80
2021/09/23 03:51:51;;;;;;;4.97;4.32;;;;;;;11.73;93.98;100691.69;4935842;29;20134;-80
2021/09/23 03:54:18;;;;;;;4.43;4.03;;;;;;;11.79;93.24;100691.38;4936043;29;20048;-80
2021/09/23 03:56:45;;;;;;;6.13;3.50;;;;;;;11.54;94.35;100699.53;4936281;29;20042;-81
2021/09/23 03:59:13;;;;;;;4.07;3.63;;;;;;;11.60;94.88;100692.31;4935448;29;20052;-80
2021/09/23 04:01:40;;;;;;;3.90;3.58;;;;;;;11.64;94.68;100691.28;4936071;29;20506;-80
2021/09/23 04:04:11;;;;;;;5.47;3.83;;;;;;;11.73;94.47;100694.31;4935555;29;20044;-80
2021/09/23 04:06:42;;;;;;;4.30;3.65;;;;;;;11.76;94.01;100693.28;4936214;29;20399;-80
2021/09/23 04:09:14;;;;;;;4.68;3.63;;;;;;;11.75;93.72;100699.44;4935645;29;20050;-80
2021/09/23 04:11:41;;;;;;;5.28;3.17;;;;;;;11.67;94.27;100694.59;4935902;29;20138;-79
2021/09/23 04:14:09;;;;;;;6.07;3.72;;;;;;;11.65;94.90;100698.19;4935859;29;20457;-78
2021/09/23 04:16:37;;;;;;;5.45;4.53;;;;;;;11.66;94.67;100695.50;4935771;29;20059;-80
2021/09/23 04:19:06;;;;;;;4.88;4.18;;;;;;;11.68;93.98;100696.28;4935870;29;20040;-80
2021/09/23 04:21:34;;;;;;;4.88;4.47;;;;;;;11.70;94.24;100691.81;4935597;29;20071;-81
2021/09/23 04:24:02;;;;;;;6.10;3.58;;;;;;;11.68;94.15;100692.81;4936110;29;20135;-81
2021/09/23 04:26:29;;;;;;;5.57;4.07;;;;;;;11.67;93.79;100693.75;4934246;29;20047;-81
2021/09/23 04:28:56;;;;;;;4.55;3.95;;;;;;;11.79;93.08;100696.63;4935348;29;20127;-80
2021/09/23 04:31:23;;;;;;;3.95;3.55;;;;;;;11.75;92.68;100700.28;4935357;29;20047;-79
2021/09/23 04:33:50;;;;;;;5.82;4.28;;;;;;;11.76;93.06;100703.75;4936229;28;20452;-84
2021/09/23 04:36:17;;;;;;;5.65;4.22;;;;;;;11.77;93.11;100701.06;4938096;29;20138;-83
2021/09/23 04:38:43;;;;;;;4.93;4.18;;;;;;;11.75;93.00;100704.66;4946458;29;20082;-79
2021/09/23 04:41:15;;;;;;;7.05;4.38;;;;;;;11.72;93.24;100707.44;4926091;29;20036;-81
2021/09/23 04:43:42;;;;;;;5.75;4.55;;;;;;;11.74;93.09;100714.28;4932395;29;20061;-80
2021/09/23 04:46:13;;;;;;;6.65;4.03;;;;;;;11.63;93.86;100711.31;4935987;29;20044;-80
2021/09/23 04:48:40;;;;;;;5.10;4.18;;;;;;;11.63;93.53;100720.91;4935056;29;20043;-82
2021/09/23 04:51:06;;;;;;;6.97;5.13;;;;;;;11.64;93.60;100718.22;4934786;29;20054;-80
2021/09/23 04:53:33;;;;;;;6.93;4.85;;;;;;;11.61;93.10;100720.13;4939649;29;20036;-81
2021/09/23 04:56:03;;;;;;;5.68;5.07;;;;;;;11.60;93.47;100718.44;4938160;29;20098;-80
2021/09/23 04:58:32;;;;;;;6.72;4.85;;;;;;;11.50;94.03;100718.88;4931963;29;20126;-81
2021/09/23 05:00:59;;;;;;;15.77;6.25;;;;;;;12.04;93.86;100716.38;4935077;29;20051;-78
2021/09/23 05:03:26;;;;;;;5.53;4.82;;;;;;;11.99;90.54;100718.38;4933829;29;20082;-80
2021/09/23 05:05:53;;;;;;;5.18;4.47;;;;;;;11.99;90.44;100719.22;4935152;29;20074;-81
2021/09/23 05:08:23;;;;;;;5.60;4.32;;;;;;;12.16;92.01;100722.75;4929754;29;20047;-79
2021/09/23 05:10:50;;;;;;;14.55;6.25;;;;;;;12.47;89.15;100711.63;4929460;29;20055;-81
2021/09/23 05:13:17;;;;;;;7.38;6.05;;;;;;;12.44;88.35;100720.47;4935876;29;20135;-82
2021/09/23 05:15:45;;;;;;;8.40;5.38;;;;;;;12.18;89.82;100729.59;4935489;29;20044;-84
2021/09/23 05:18:12;;;;;;;8.65;6.93;;;;;;;12.45;89.30;100719.53;4935682;29;20036;-81
2021/09/23 05:20:40;;;;;;;7.20;6.07;;;;;;;12.56;88.77;100717.22;4934886;28;20048;-79
2021/09/23 05:23:07;;;;;;;8.18;6.20;;;;;;;12.37;89.71;100723.47;4933704;29;20048;-80
2021/09/23 05:25:34;;;;;;;12.05;7.20;;;;;;;12.47;89.05;100724.72;4933118;29;20040;-79
2021/09/23 05:28:02;;;;;;;8.48;6.60;;;;;;;12.50;88.66;100720.16;4933246;29;20051;-78
2021/09/23 05:30:29;;;;;;;9.60;6.60;;;;;;;12.67;87.64;100721.91;4931394;29;20050;-79
2021/09/23 05:32:56;;;;;;;8.48;7.22;;;;;;;12.88;86.10;100726.97;4935993;29;20043;-78
2021/09/23 05:35:23;;;;;;;12.55;7.22;;;;;;;12.96;85.81;100725.66;4927809;29;20051;-77
2021/09/23 05:37:50;;;;;;;14.23;8.18;;;;;;;12.95;85.93;100730.97;4921054;29;20050;-79
2021/09/23 05:40:17;;;;;;;7.63;5.90;;;;;;;12.90;86.33;100739.06;4926066;29;20044;-78
2021/09/23 05:42:43;;;;;;;9.48;6.95;;;;;;;13.18;84.83;100741.06;4919452;29;20055;-79
2021/09/23 05:45:12;;;;;;;14.13;8.30;;;;;;;13.36;83.73;100736.66;4933758;29;20410;-80
2021/09/23 05:47:40;;;;;;;10.45;7.82;;;;;;;13.49;83.79;100747.34;4934404;28;20043;-78
2021/09/23 05:50:09;;;;;;;11.00;9.00;;;;;;;13.51;83.76;100746.31;4931817;29;20067;-79
2021/09/23 05:52:36;;;;;;;10.85;9.10;;;;;;;13.54;83.65;100740.91;4927408;29;20484;-78
2021/09/23 05:55:04;;;;;;;10.88;8.45;;;;;;;13.62;83.14;100748.34;4929331;29;20036;-79
2021/09/23 05:57:36;;;;;;;11.63;8.65;;;;;;;13.72;82.77;100748.69;4925714;29;20054;-78
2021/09/23 06:00:15;;;;;;;10.82;8.40;;;;;;;13.75;83.06;100751.16;4926179;29;20094;-77
2021/09/23 06:02:45;;;;;;;9.52;8.10;;;;;;;13.72;83.31;100749.53;4927506;29;20518;-79
2021/09/23 06:05:14;;;;;;;11.70;8.50;;;;;;;13.91;82.61;100753.78;4930412;29;20048;-79
2021/09/23 06:07:42;;;;;;;11.27;9.18;;;;;;;13.91;83.33;100753.78;4931952;28;20511;-78
2021/09/23 06:10:10;;;;;;;13.20;9.75;;;;;;;14.00;82.63;100764.56;4930790;29;20051;-78
2021/09/23 06:12:37;;;;;;;13.85;11.63;;;;;;;14.21;81.76;100756.41;4927400;29;20066;-77
2021/09/23 06:15:05;;;;;;;15.63;12.25;;;;;;;14.28;82.04;100750.75;4928806;29;20043;-77
2021/09/23 06:17:32;;;;;;;15.20;12.23;;;;;;;14.45;81.69;100760.28;4933664;29;20057;-81
2021/09/23 06:19:59;;;;;;;17.58;13.00;;;;;;;14.54;81.58;100754.53;4930998;29;20040;-78
2021/09/23 06:22:26;;;;;;;19.58;15.27;;;;;;;14.63;81.60;100756.59;4931925;29;20428;-78
2021/09/23 06:24:53;;;;;;;24.40;18.25;;;;;;;14.67;81.29;100760.72;4934308;29;20044;-77
2021/09/23 06:27:19;;;;;;;23.65;18.17;;;;;;;14.71;80.75;100763.19;4934565;29;20047;-77
2021/09/23 06:29:47;;;;;;;29.27;21.50;;;;;;;14.85;80.10;100760.56;4931925;28;20044;-75
2021/09/23 06:32:15;;;;;;;27.77;19.95;;;;;;;14.82;81.33;100763.41;4932434;29;20575;-78
2021/09/23 06:34:42;;;;;;;23.83;16.08;;;;;;;14.65;81.62;100767.88;4931369;29;20055;-76
2021/09/23 06:37:09;;;;;;;28.08;18.45;;;;;;;14.46;82.33;100763.72;4931290;29;20180;-77
2021/09/23 06:39:38;;;;;;;26.40;17.98;;;;;;;14.59;81.64;100762.09;4933360;29;20410;-77
2021/09/23 06:42:05;;;;;;;20.70;17.45;;;;;;;14.62;81.58;100770.66;4928697;29;20130;-80
2021/09/23 06:44:32;;;;;;;24.98;16.85;;;;;;;14.96;79.95;100768.66;4928363;28;20040;-79
2021/09/23 06:46:59;;;;;;;21.75;15.40;;;;;;;15.08;79.27;100770.56;4927950;29;20044;-78
2021/09/23 06:49:26;;;;;;;25.85;18.05;;;;;;;14.91;80.53;100774.19;4929709;29;20044;-78
2021/09/23 06:51:53;;;;;;;24.15;17.00;;;;;;;15.02;80.71;100775.31;4932965;29;20447;-77
2021/09/23 06:54:19;;;;;;;21.60;17.55;;;;;;;15.20;79.74;100763.72;4934337;29;20048;-78
2021/09/23 06:56:46;;;;;;;26.05;19.13;;;;;;;15.30;80.30;100767.47;4934244;29;20407;-80
2021/09/23 06:59:13;;;;;;;25.05;17.73;;;;;;;15.44;80.07;100767.44;4931863;29;20558;-78
2021/09/23 07:01:49;;;;;;;25.25;19.83;;;;;;;15.33;79.82;100767.25;4933887;29;20055;-79
2021/09/23 07:04:35;;;;;;;30.65;21.83;;;;;;;15.45;79.17;100770.94;4941332;29;20058;-77
2021/09/23 07:07:15;;;;;;;26.88;19.33;;;;;;;15.58;77.93;100768.38;4938323;29;20126;-80
2021/09/23 07:09:46;;;;;;;22.35;18.10;;;;;;;15.73;77.38;100771.88;4931823;29;20094;-78
2021/09/23 07:12:20;;;;;;;24.05;17.27;;;;;;;15.81;76.62;100774.84;4935960;29;20063;-77
2021/09/23 07:14:48;;;;;;;23.40;18.33;;;;;;;15.53;77.37;100780.97;4934592;29;20380;-80
2021/09/23 07:17:15;;;;;;;24.08;19.17;;;;;;;15.60;77.84;100782.25;4937201;29;20048;-78
2021/09/23 07:19:43;;;;;;;26.35;18.63;;;;;;;15.67;77.63;100773.09;4936279;29;20264;-78
2021/09/23 07:22:10;;;;;;;25.88;20.67;;;;;;;15.44;78.97;100782.34;4928349;29;20080;-77
2021/09/23 07:24:37;;;;;;;27.13;21.65;;;;;;;15.71;77.57;100779.81;4933626;29;20422;-78
2021/09/23 07:27:05;;;;;;;23.77;19.25;;;;;;;15.42;77.94;100779.84;4934767;28;20040;-77
2021/09/23 07:29:33;;;;;;;25.20;18.60;;;;;;;15.68;77.60;100780.88;4948888;28;20119;-78
2021/09/23 07:32:00;;;;;;;23.02;16.58;;;;;;;16.04;76.48;100782.13;4934544;29;20036;-79
2021/09/23 07:34:27;;;;;;;24.60;16.75;;;;;;;15.88;76.19;100776.16;4933051;29;20032;-80
2021/09/23 07:36:54;;;;;;;24.80;17.85;;;;;;;16.06;76.21;100774.97;4931632;29;20127;-80
2021/09/23 07:39:21;;;;;;;22.02;18.20;;;;;;;16.06;76.45;100774.97;4935154;29;20036;-79
2021/09/23 07:41:48;;;;;;;27.85;19.38;;;;;;;16.05;77.26;100778.53;4934236;29;20047;-80
2021/09/23 07:44:15;;;;;;;26.65;18.50;;;;;;;16.31;75.93;100778.66;4935331;29;20051;-80
2021/09/23 07:46:42;;;;;;;21.25;16.80;;;;;;;16.31;73.41;100778.66;4939329;29;20051;-79
2021/09/23 07:49:10;;;;;;;22.98;16.90;;;;;;;16.17;72.78;100780.38;4928432;29;20495;-78
2021/09/23 07:51:41;;;;;;;18.30;16.25;;;;;;;16.26;72.53;100780.72;4930673;29;20044;-80
2021/09/23 07:54:09;;;;;;;23.10;14.70;;;;;;;16.37;71.39;100779.09;4933991;28;20040;-79
2021/09/23 07:56:37;;;;;;;18.88;14.02;;;;;;;16.57;70.29;100771.66;4929324;29;20056;-78
2021/09/23 07:59:05;;;;;;;20.77;12.77;;;;;;;16.74;69.57;100771.41;4926017;29;20036;-80
2021/09/23 08:01:32;;;;;;;15.90;14.20;;;;;;;16.63;70.23;100781.78;4921028;29;20416;-93
2021/09/23 08:04:02;;;;;;;16.75;13.25;;;;;;;16.64;69.46;100775.56;4933771;29;20036;-83
2021/09/23 08:06:29;;;;;;;17.10;13.40;;;;;;;16.83;69.27;100770.78;4934943;28;20051;-84
2021/09/23 08:08:58;;;;;;;14.57;13.00;;;;;;;16.76;68.42;100772.97;4929417;29;20572;-81
2021/09/23 08:11:26;;;;;;;19.17;14.13;;;;;;;16.88;68.68;100770.47;4929977;29;20131;-81
2021/09/23 08:14:04;;;;;;;16.23;13.63;;;;;;;17.11;67.56;100769.75;4929376;29;20167;-80
2021/09/23 08:16:32;;;;;;;15.02;13.27;;;;;;;17.51;66.20;100769.59;4931282;29;20040;-79
2021/09/23 08:19:16;;;;;;;15.27;12.57;;;;;;;17.22;66.67;100766.38;4939770;29;20550;-79
2021/09/23 08:21:58;;;;;;;13.18;10.93;;;;;;;17.08;66.09;100769.94;4933405;29;20058;-80
2021/09/23 08:24:25;;;;;;;12.75;11.05;;;;;;;17.15;66.02;100767.72;4943159;29;20070;-80
2021/09/23 08:26:52;;;;;;;12.73;10.25;;;;;;;17.42;65.49;100767.63;4937389;29;20039;-81
2021/09/23 08:29:19;;;;;;;15.95;12.30;;;;;;;17.05;66.39;100754.38;4937862;29;20447;-81
2021/09/23 08:31:46;;;;;;;17.50;12.25;;;;;;;17.50;65.70;100760.84;4935370;29;20047;-81
2021/09/23 08:34:13;;;;;;;19.27;11.98;;;;;;;17.35;65.64;100758.44;4938150;29;20035;-84
2021/09/23 08:36:40;;;;;;;13.75;10.20;;;;;;;17.57;65.97;100750.69;4944046;29;20052;-81
2021/09/23 08:39:09;;;;;;;11.70;10.05;;;;;;;17.95;64.55;100749.75;4939291;29;20072;-81
2021/09/23 08:41:36;;;;;;;11.45;7.78;;;;;;;18.03;63.72;100744.78;4938471;29;20051;-80
2021/09/23 08:44:04;;;;;;;11.65;8.95;;;;;;;17.91;63.59;100748.31;4936976;29;20048;-83
2021/09/23 08:46:35;;;;;;;15.40;7.72;;;;;;;18.04;63.07;100738.53;4939596;29;20043;-82
2021/09/23 08:49:05;;;;;;;21.58;9.65;;;;;;;18.15;63.03;100741.22;4935931;29;20051;-79
2021/09/23 08:51:39;;;;;;;8.85;6.20;;;;;;;18.23;62.53;100741.53;4934533;29;20082;-82
2021/09/23 08:54:07;;;;;;;7.07;5.25;;;;;;;17.93;62.90;100743.75;4934977;29;20402;-80
2021/09/23 08:56:34;;;;;;;10.77;5.85;;;;;;;18.34;62.10;100738.09;4935842;29;20471;-81
2021/09/23 08:59:02;;;;;;;8.35;5.25;;;;;;;18.38;62.38;100746.63;4926593;29;20510;-82
2021/09/23 09:01:42;;;;;;;10.63;5.80;;;;;;;18.25;61.90;100744.88;4934144;29;20039;-80
2021/09/23 09:04:31;;;;;;;8.68;5.82;;;;;;;18.70;60.78;100737.16;4929366;29;20491;-82
2021/09/23 09:07:08;;;;;;;14.20;6.15;;;;;;;18.61;61.91;100744.88;4935244;29;20035;-81
2021/09/23 09:09:46;;;;;;;7.43;6.70;;;;;;;18.69;61.01;100740.72;4935146;29;20461;-81
2021/09/23 09:12:15;;;;;;;14.20;10.15;;;;;;;18.55;60.59;100747.03;4939152;29;20048;-82
2021/09/23 09:14:48;;;;;;;17.33;9.55;;;;;;;18.86;60.77;100741.25;4937099;28;20502;-82
2021/09/23 09:17:18;;;;;;;8.02;7.20;;;;;;;19.07;59.39;100729.03;4936333;29;20039;-82
2021/09/23 09:19:51;;;;;;;15.95;11.13;;;;;;;18.77;59.92;100733.06;4935266;29;20082;-81
2021/09/23 09:22:27;;;;;;;12.77;7.90;;;;;;;18.93;59.48;100739.81;4934662;29;20083;-84
2021/09/23 09:24:55;;;;;;;9.52;8.13;;;;;;;19.13;58.75;100728.56;4941667;29;20141;-86
2021/09/23 09:27:44;;;;;;;16.58;8.60;;;;;;;19.07;58.51;100731.69;4937989;28;20039;-81
2021/09/23 09:30:22;;;;;;;8.80;6.55;;;;;;;19.35;57.54;100728.53;4932995;29;20047;-84
2021/09/23 09:32:57;;;;;;;8.45;6.15;;;;;;;19.45;57.70;100727.81;4938115;29;20470;-85
2021/09/23 09:35:35;;;;;;;8.73;7.40;;;;;;;19.64;56.91;100725.41;4936423;29;20475;-85
2021/09/23 09:38:07;;;;;;;10.05;8.98;;;;;;;19.16;58.75;100716.88;4933002;29;20487;-85
2021/09/23 09:40:38;;;;;;;10.32;9.23;;;;;;;19.53;57.58;100720.09;4935020;29;20044;-85
2021/09/23 09:43:11;;;;;;;10.63;9.02;;;;;;;19.36;58.42;100721.44;4936211;29;20039;-84
2021/09/23 09:45:40;;;;;;;11.55;8.27;;;;;;;19.43;58.23;100708.56;4940241;29;20051;-84
2021/09/23 09:48:08;;;;;;;9.73;8.63;;;;;;;19.51;57.86;100712.31;4938770;28;20058;-84
2021/09/23 09:50:37;;;;;;;8.38;7.15;;;;;;;19.62;57.54;100711.47;4943589;29;20079;-84
2021/09/23 09:53:13;;;;;;;13.07;9.20;;;;;;;19.60;57.81;100716.88;4943422;29;20047;-83
2021/09/23 09:55:47;;;;;;;11.60;7.05;;;;;;;19.78;58.07;100714.56;4945024;29;20071;-85
2021/09/23 09:58:24;;;;;;;11.32;6.72;;;;;;;19.93;56.88;100709.00;4948420;29;20076;-85
2021/09/23 10:00:51;;;;;;;9.52;7.78;;;;;;;19.91;55.92;100721.47;4947731;28;20068;-85
2021/09/23 10:03:20;;;;;;;8.65;7.10;;;;;;;20.09;55.42;100715.53;4937222;29;20883;-82
2021/09/23 10:05:47;;;;;;;10.05;7.00;;;;;;;20.13;54.91;100716.09;4939315;29;20047;-88
2021/09/23 10:08:20;;;;;;;8.48;7.57;;;;;;;19.97;55.20;100713.88;4944713;29;20047;-86
2021/09/23 10:10:49;;;;;;;12.77;6.85;;;;;;;20.56;54.52;100702.81;4953623;29;20079;-85
2021/09/23 10:13:19;;;;;;;14.70;8.30;;;;;;;20.84;52.67;100703.94;4951218;29;20070;-82
2021/09/23 10:15:46;;;;;;;13.07;8.23;;;;;;;20.31;54.87;100695.22;4955525;29;20103;-85
2021/09/23 10:18:14;;;;;;;11.68;6.88;;;;;;;20.14;55.04;100688.69;4962754;29;20023;-83
2021/09/23 10:20:45;;;;;;;6.05;5.45;;;;;;;20.72;51.87;100693.56;4955274;29;20042;-86
2021/09/23 10:23:12;;;;;;;8.38;5.70;;;;;;;20.28;51.38;100691.00;4946530;29;20115;-86
2021/09/23 10:25:48;;;;;;;7.38;6.35;;;;;;;21.10;51.11;100693.75;4947821;29;20111;-88
2021/09/23 10:28:17;;;;;;;10.77;6.90;;;;;;;20.54;52.56;100690.66;4953830;29;20498;-86
2021/09/23 10:30:44;;;;;;;8.05;6.85;;;;;;;20.35;53.07;100692.19;4958380;29;20066;-87
2021/09/23 10:33:14;;;;;;;9.02;5.80;;;;;;;20.67;51.71;100692.16;4945286;29;20044;-87
2021/09/23 10:35:41;;;;;;;8.95;6.50;;;;;;;20.53;51.52;100687.19;4953678;29;20518;-85
2021/09/23 10:38:21;;;;;;;11.57;7.10;;;;;;;20.61;51.18;100683.88;4960729;29;20081;-87
2021/09/23 10:40:48;;;;;;;7.63;5.43;;;;;;;21.07;50.55;100675.44;4954808;28;20072;-87
2021/09/23 10:43:17;;;;;;;6.82;6.07;;;;;;;20.97;50.29;100671.09;4956346;29;20526;-89
2021/09/23 10:45:52;;;;;;;11.68;5.05;;;;;;;21.51;49.99;100681.31;4952439;29;20048;-88
2021/09/23 10:48:22;;;;;;;7.30;5.57;;;;;;;20.55;50.65;100679.09;4958692;29;20047;-86
2021/09/23 10:50:50;;;;;;;5.47;4.90;;;;;;;21.11;48.70;100676.03;4955983;29;20040;-87
2021/09/23 10:53:17;;;;;;;7.35;5.53;;;;;;;21.29;47.47;100670.91;4961273;29;20031;-83
2021/09/23 10:56:05;;;;;;;6.18;5.57;;;;;;;21.06;48.37;100671.13;4949686;29;20072;-86
2021/09/23 10:58:39;;;;;;;5.35;4.82;;;;;;;21.81;46.66;100674.25;4950432;29;20150;-88
2021/09/23 11:01:20;;;;;;;5.40;4.68;;;;;;;22.04;44.51;100672.16;4965283;29;20039;-87
2021/09/23 11:03:49;;;;;;;7.78;4.75;;;;;;;21.85;46.04;100673.84;4956365;29;20059;-88
2021/09/23 11:06:18;;;;;;;7.97;5.22;;;;;;;21.34;48.13;100666.91;4948491;29;20047;-89
2021/09/23 11:08:47;;;;;;;8.23;5.22;;;;;;;21.60;47.60;100675.22;4948885;29;20039;-86
2021/09/23 11:11:17;;;;;;;14.13;4.15;;;;;;;21.90;45.17;100665.47;4954345;29;20043;-87
2021/09/23 11:13:44;;;;;;;8.35;5.85;;;;;;;21.50;45.51;100668.22;4944039;29;20056;-84
2021/09/23 11:16:12;;;;;;;4.63;4.13;;;;;;;21.51;44.84;100659.28;4954305;29;20043;-87
2021/09/23 11:18:43;;;;;;;5.25;4.20;;;;;;;21.51;44.15;100665.41;4948763;29;20048;-86
2021/09/23 11:21:13;;;;;;;5.10;4.60;;;;;;;21.82;44.37;100660.00;4941885;29;20507;-87
2021/09/23 11:23:40;;;;;;;5.63;5.03;;;;;;;22.25;43.79;100656.94;4938685;29;20399;-87
2021/09/23 11:26:08;;;;;;;6.45;4.30;;;;;;;21.77;43.78;100657.78;4942552;29;20054;-88
2021/09/23 11:28:37;;;;;;;6.43;4.00;;;;;;;21.86;42.21;100656.94;4925934;29;20052;-85